Time;durP1;ratioP1;P1;durP2;ratioP2;P2;SDS_P1;SDS_P2;PMS_P1;PMS_P2;Temp;Humidity;BMP_temperature;BMP_pressure;BME280_temperature;BME280_humidity;BME280_pressure;Samples;Min_cycle;Max_cycle;Signal;HPM_P1;HPM_P2
2022/03/14 00:08:47;;;;;;;1.20;0.50;;;11.80;99.90;;;;;;20562696;28;20051;-46
2022/03/14 00:18:53;;;;;;;2.22;0.70;;;11.70;99.90;;;;;;20627282;28;20049;-46
2022/03/14 00:28:54;;;;;;;1.92;0.60;;;11.60;99.90;;;;;;20666504;28;20046;-47
2022/03/14 00:38:55;;;;;;;2.03;0.68;;;11.40;99.90;;;;;;20650968;28;20045;-46
2022/03/14 00:48:56;;;;;;;1.73;0.70;;;11.40;99.90;;;;;;20646224;28;20042;-47
2022/03/14 00:59:01;;;;;;;1.33;0.50;;;11.30;99.90;;;;;;20652437;28;20038;-46
2022/03/14 01:09:03;;;;;;;1.65;0.52;;;11.40;99.90;;;;;;20661434;28;20259;-46
2022/03/14 01:19:05;;;;;;;4.32;0.68;;;11.30;99.90;;;;;;20656354;28;20046;-46
2022/03/14 01:29:07;;;;;;;1.15;0.60;;;11.30;99.90;;;;;;20652822;28;20434;-46
2022/03/14 01:39:08;;;;;;;0.68;0.35;;;11.20;99.90;;;;;;20633813;28;20465;-46
2022/03/14 01:49:11;;;;;;;2.03;0.70;;;11.20;99.90;;;;;;20581775;28;20447;-46
2022/03/14 01:59:13;;;;;;;1.98;0.82;;;11.10;99.90;;;;;;20578856;28;20565;-46
2022/03/14 02:09:14;;;;;;;2.88;1.30;;;11.00;99.90;;;;;;20636906;28;20046;-46
2022/03/14 02:19:16;;;;;;;1.80;0.65;;;10.90;99.90;;;;;;20621912;28;20030;-46
2022/03/14 02:29:19;;;;;;;2.30;0.95;;;10.80;99.90;;;;;;20646815;28;20047;-46
2022/03/14 02:39:20;;;;;;;2.20;0.98;;;10.80;99.90;;;;;;20648926;28;20052;-46
2022/03/14 02:49:21;;;;;;;1.55;0.75;;;10.80;99.90;;;;;;20639693;28;20054;-46
2022/03/14 02:59:25;;;;;;;2.13;0.80;;;10.80;99.90;;;;;;20639093;28;20058;-46
2022/03/14 03:09:26;;;;;;;3.42;1.25;;;10.80;99.90;;;;;;20641036;28;20052;-46
2022/03/14 03:19:28;;;;;;;2.53;1.27;;;10.70;99.90;;;;;;20638656;28;20038;-46
2022/03/14 03:29:29;;;;;;;3.22;1.10;;;10.70;99.90;;;;;;20642946;28;20050;-46
2022/03/14 03:39:32;;;;;;;4.57;1.27;;;10.60;99.90;;;;;;20651643;28;20057;-46
2022/03/14 03:49:33;;;;;;;2.75;1.40;;;10.50;99.90;;;;;;20659348;28;20050;-46
2022/03/14 03:59:34;;;;;;;3.10;1.45;;;10.50;99.90;;;;;;20655688;28;20037;-47
2022/03/14 04:09:36;;;;;;;2.00;1.13;;;10.40;99.90;;;;;;20648571;28;20059;-47
2022/03/14 04:19:38;;;;;;;5.32;2.25;;;10.50;99.90;;;;;;20652030;28;20042;-47
2022/03/14 04:29:39;;;;;;;4.60;1.90;;;10.20;99.90;;;;;;20662494;28;20058;-46
2022/03/14 04:39:41;;;;;;;5.78;3.15;;;10.00;99.90;;;;;;20671444;28;20039;-46
2022/03/14 04:49:43;;;;;;;5.80;2.55;;;9.70;99.90;;;;;;20585224;28;20465;-46
2022/03/14 04:59:45;;;;;;;7.13;3.90;;;9.50;99.90;;;;;;20666355;28;20038;-46
2022/03/14 05:09:46;;;;;;;9.45;3.50;;;9.30;99.90;;;;;;20619158;28;20046;-46
2022/03/14 05:19:47;;;;;;;7.97;3.53;;;9.30;99.90;;;;;;20626721;28;20050;-46
2022/03/14 05:29:49;;;;;;;8.18;3.53;;;9.30;99.90;;;;;;20630329;28;20035;-51
2022/03/14 05:39:50;;;;;;;7.53;3.50;;;9.30;99.90;;;;;;20655377;28;20056;-47
2022/03/14 05:49:51;;;;;;;7.93;2.55;;;9.30;99.90;;;;;;20648901;28;20042;-46
2022/03/14 05:59:52;;;;;;;7.05;2.88;;;9.30;99.90;;;;;;20658206;28;20478;-46
2022/03/14 06:09:53;;;;;;;5.57;2.38;;;9.20;99.90;;;;;;20648183;28;20046;-46
2022/03/14 06:19:54;;;;;;;7.15;2.95;;;9.20;99.90;;;;;;20614431;28;20477;-46
2022/03/14 06:29:56;;;;;;;9.23;3.63;;;9.10;99.90;;;;;;20673491;28;20413;-46
2022/03/14 06:39:57;;;;;;;13.43;4.07;;;9.20;99.90;;;;;;20654395;28;20045;-46
2022/03/14 06:49:58;;;;;;;8.65;4.55;;;9.20;99.90;;;;;;20637088;28;20054;-46
2022/03/14 06:59:59;;;;;;;8.18;3.67;;;9.20;99.90;;;;;;20646607;28;20466;-46
2022/03/14 07:10:01;;;;;;;9.13;3.60;;;9.20;99.90;;;;;;20649394;28;20297;-46
2022/03/14 07:20:03;;;;;;;8.70;3.17;;;9.10;99.90;;;;;;20655666;28;20037;-46
2022/03/14 07:30:04;;;;;;;7.82;3.40;;;9.10;99.90;;;;;;20667628;28;20042;-46
2022/03/14 07:40:08;;;;;;;10.02;4.25;;;9.20;99.90;;;;;;20665063;28;20042;-46
2022/03/14 07:50:14;;;;;;;9.70;4.32;;;9.30;99.90;;;;;;20697825;28;20069;-46
2022/03/14 08:00:18;;;;;;;7.80;3.63;;;9.50;99.90;;;;;;20681443;28;20050;-46
2022/03/14 08:10:20;;;;;;;10.48;4.05;;;9.60;99.90;;;;;;20664060;28;20053;-46
2022/03/14 08:20:26;;;;;;;15.05;5.15;;;9.70;99.90;;;;;;20679142;28;20494;-46
2022/03/14 08:30:27;;;;;;;21.08;7.32;;;9.80;99.90;;;;;;20667604;28;21534;-46
2022/03/14 08:40:28;;;;;;;18.20;6.97;;;10.00;99.90;;;;;;20654697;28;20060;-46
2022/03/14 08:50:31;;;;;;;19.55;7.63;;;10.00;99.90;;;;;;20665185;28;20805;-46
2022/03/14 09:00:34;;;;;;;15.63;6.85;;;10.00;99.90;;;;;;20655623;28;20034;-46
2022/03/14 09:10:37;;;;;;;27.38;10.10;;;10.00;99.90;;;;;;20646577;28;20418;-46
2022/03/14 09:20:39;;;;;;;21.80;9.90;;;10.20;99.90;;;;;;20643901;28;20034;-46
2022/03/14 09:30:42;;;;;;;24.13;8.55;;;10.30;99.90;;;;;;20649365;28;20083;-46
2022/03/14 09:40:45;;;;;;;20.20;8.32;;;10.30;99.90;;;;;;20659149;28;20272;-46
2022/03/14 09:50:47;;;;;;;19.40;8.30;;;10.30;99.90;;;;;;20649491;28;20038;-46
2022/03/14 10:00:50;;;;;;;17.83;6.97;;;10.30;99.90;;;;;;20657956;28;20034;-46
2022/03/14 10:10:51;;;;;;;19.17;8.25;;;10.60;99.90;;;;;;20640833;28;20046;-46
2022/03/14 10:20:57;;;;;;;18.90;8.82;;;10.60;99.90;;;;;;20633903;28;20040;-46
2022/03/14 10:31:03;;;;;;;20.10;7.22;;;10.50;99.90;;;;;;20637191;28;20047;-46
2022/03/14 10:41:14;;;;;;;17.92;7.22;;;10.60;99.90;;;;;;20631947;28;20559;-46
2022/03/14 10:51:15;;;;;;;17.63;7.43;;;10.60;99.90;;;;;;20639716;28;20053;-46
2022/03/14 11:01:16;;;;;;;19.92;6.95;;;10.60;99.90;;;;;;20637215;28;20026;-46
2022/03/14 11:11:21;;;;;;;14.25;6.00;;;11.00;99.90;;;;;;20652595;28;20052;-46
2022/03/14 11:21:27;;;;;;;15.80;6.18;;;12.20;99.90;;;;;;20624065;28;20050;-46
2022/03/14 11:31:29;;;;;;;16.00;5.90;;;12.90;99.90;;;;;;20622358;28;21534;-46
2022/03/14 11:41:30;;;;;;;11.70;5.07;;;12.30;99.90;;;;;;20635286;28;20042;-46
2022/03/14 11:51:41;;;;;;;11.38;4.68;;;12.40;99.90;;;;;;20628017;28;20054;-46
2022/03/14 12:01:50;;;;;;;7.95;3.35;;;12.30;99.90;;;;;;20643196;28;20066;-46
2022/03/14 12:11:55;;;;;;;8.43;3.08;;;12.40;99.90;;;;;;20651598;28;20493;-47
2022/03/14 12:22:03;;;;;;;8.65;3.05;;;13.80;99.90;;;;;;20647057;28;20042;-47
2022/03/14 12:32:23;;;;;;;9.05;2.95;;;13.60;99.90;;;;;;20639888;28;20482;-46
2022/03/14 12:42:25;;;;;;;10.30;4.03;;;14.10;99.90;;;;;;20636755;28;20053;-47
2022/03/14 12:52:26;;;;;;;9.55;3.95;;;14.00;99.90;;;;;;20608604;28;20046;-46
2022/03/14 13:02:28;;;;;;;10.93;4.38;;;13.30;99.90;;;;;;20628901;28;20412;-47
2022/03/14 13:12:29;;;;;;;10.35;3.10;;;14.10;99.90;;;;;;20637970;28;20046;-46
2022/03/14 13:22:32;;;;;;;8.63;3.78;;;14.90;99.90;;;;;;20635617;28;20457;-47
2022/03/14 13:32:33;;;;;;;10.85;3.20;;;15.30;99.90;;;;;;20601034;28;20050;-47
2022/03/14 13:42:36;;;;;;;8.35;3.70;;;15.10;99.90;;;;;;20587988;28;20047;-47
2022/03/14 13:52:50;;;;;;;12.20;4.15;;;15.70;99.90;;;;;;20610572;28;20167;-46
2022/03/14 14:02:58;;;;;;;6.35;3.20;;;16.50;99.90;;;;;;20611116;28;20052;-47
2022/03/14 14:13:01;;;;;;;5.35;1.90;;;16.20;99.90;;;;;;20605941;28;20046;-47
2022/03/14 14:23:04;;;;;;;4.63;2.33;;;16.80;99.90;;;;;;20610045;28;20046;-46
2022/03/14 14:33:16;;;;;;;6.60;1.85;;;16.20;99.90;;;;;;20609141;28;20542;-46
2022/03/14 14:43:19;;;;;;;6.72;1.60;;;15.70;99.90;;;;;;20600463;28;20181;-47
2022/03/14 14:53:22;;;;;;;6.68;1.73;;;15.40;99.90;;;;;;20610653;28;20061;-47
2022/03/14 15:03:24;;;;;;;4.78;1.75;;;15.10;99.90;;;;;;20608387;28;20369;-47
2022/03/14 15:13:27;;;;;;;5.30;1.17;;;15.30;99.90;;;;;;20595383;28;20049;-46
2022/03/14 15:23:28;;;;;;;5.05;1.42;;;15.20;99.90;;;;;;20614186;28;20048;-46
2022/03/14 15:33:30;;;;;;;6.43;1.40;;;14.90;99.90;;;;;;20588976;28;20058;-46
2022/03/14 15:43:32;;;;;;;2.30;1.10;;;14.10;99.90;;;;;;20494137;28;20042;-46
2022/03/14 15:53:34;;;;;;;6.47;1.20;;;14.10;99.90;;;;;;20546585;28;20046;-46
2022/03/14 16:03:35;;;;;;;2.13;0.88;;;14.00;99.90;;;;;;20605477;28;20043;-46
2022/03/14 16:13:36;;;;;;;3.47;0.73;;;13.70;99.90;;;;;;20609065;28;20046;-46
2022/03/14 16:23:39;;;;;;;1.92;0.63;;;13.50;99.90;;;;;;20611125;28;20477;-46
2022/03/14 16:33:41;;;;;;;4.60;0.75;;;13.30;99.90;;;;;;20618052;28;20249;-46
2022/03/14 16:43:44;;;;;;;3.25;0.68;;;13.10;99.90;;;;;;20530770;28;20339;-47
2022/03/14 16:53:46;;;;;;;1.55;1.02;;;12.90;99.90;;;;;;20610074;28;20048;-46
2022/03/14 17:03:47;;;;;;;2.95;0.63;;;12.80;99.90;;;;;;20611944;28;20042;-47
2022/03/14 17:13:48;;;;;;;5.65;0.60;;;12.60;99.90;;;;;;20617399;28;20042;-47
2022/03/14 17:23:50;;;;;;;0.85;0.30;;;12.40;99.90;;;;;;20616439;28;20039;-47
2022/03/14 17:33:51;;;;;;;8.98;1.50;;;12.20;99.90;;;;;;20637376;28;20054;-46
2022/03/14 17:43:52;;;;;;;8.00;0.80;;;12.00;99.90;;;;;;20629205;28;20049;-46
2022/03/14 17:53:56;;;;;;;3.33;0.75;;;11.80;99.90;;;;;;20641221;28;20042;-47
2022/03/14 18:03:57;;;;;;;4.47;0.52;;;11.50;99.90;;;;;;20659469;28;20061;-47
2022/03/14 18:13:58;;;;;;;2.38;0.60;;;11.30;99.90;;;;;;20640923;28;20046;-47
2022/03/14 18:24:00;;;;;;;1.83;0.45;;;11.00;99.90;;;;;;20645833;28;20050;-47
2022/03/14 18:34:14;;;;;;;2.88;0.60;;;10.70;99.90;;;;;;20635987;28;20045;-46
2022/03/14 18:44:17;;;;;;;3.40;0.47;;;10.50;99.90;;;;;;20645845;28;20433;-46
2022/03/14 18:54:19;;;;;;;2.28;0.82;;;10.20;99.90;;;;;;20657877;28;20039;-46
2022/03/14 19:04:23;;;;;;;2.17;0.80;;;10.00;99.90;;;;;;20591646;28;20038;-47
2022/03/14 19:14:28;;;;;;;2.92;1.40;;;9.90;99.90;;;;;;20594147;28;20051;-47
2022/03/14 19:24:29;;;;;;;3.38;1.25;;;9.80;99.90;;;;;;20623168;28;20034;-46
2022/03/14 19:34:35;;;;;;;3.88;1.30;;;9.50;99.90;;;;;;20644183;28;20454;-46
2022/03/14 19:44:36;;;;;;;3.55;1.63;;;9.30;99.90;;;;;;20619427;28;20049;-46
2022/03/14 19:54:39;;;;;;;4.63;1.77;;;9.10;99.90;;;;;;20602566;28;20141;-46
2022/03/14 20:04:40;;;;;;;5.40;1.70;;;8.90;99.90;;;;;;20633553;28;20243;-46
2022/03/14 20:14:42;;;;;;;4.15;1.45;;;8.80;99.90;;;;;;20603652;28;20057;-47
2022/03/14 20:24:44;;;;;;;5.60;1.83;;;8.80;99.90;;;;;;20619388;28;20046;-46
2022/03/14 20:34:45;;;;;;;4.75;1.88;;;8.80;99.90;;;;;;20613976;28;20062;-46
2022/03/14 20:44:46;;;;;;;3.75;2.15;;;8.70;99.90;;;;;;20608397;28;21201;-47
2022/03/14 20:54:48;;;;;;;4.30;1.27;;;8.60;99.90;;;;;;20625963;28;20050;-46
2022/03/14 21:04:50;;;;;;;5.85;1.40;;;8.50;99.90;;;;;;20636756;28;20108;-46
2022/03/14 21:14:53;;;;;;;3.55;1.55;;;8.20;99.90;;;;;;20628895;28;20587;-46
2022/03/14 21:24:54;;;;;;;3.35;1.20;;;8.20;99.90;;;;;;20626309;28;20034;-46
2022/03/14 21:34:55;;;;;;;7.20;2.03;;;8.00;99.90;;;;;;20632596;28;20049;-47
2022/03/14 21:44:56;;;;;;;5.93;2.33;;;7.90;99.90;;;;;;20633990;28;20042;-48
2022/03/14 21:54:57;;;;;;;6.18;1.20;;;7.90;99.90;;;;;;20631994;28;20051;-46
2022/03/14 22:04:58;;;;;;;4.32;1.13;;;7.80;99.90;;;;;;20642914;28;20031;-47
2022/03/14 22:14:59;;;;;;;2.67;1.08;;;7.70;99.90;;;;;;20633373;28;20046;-47
2022/03/14 22:25:01;;;;;;;4.07;1.40;;;7.70;99.90;;;;;;20600272;28;20060;-46
2022/03/14 22:35:03;;;;;;;3.47;2.00;;;7.50;99.90;;;;;;20592097;28;20061;-46
2022/03/14 22:45:05;;;;;;;3.78;1.40;;;7.40;99.90;;;;;;20613479;28;20494;-53
2022/03/14 22:55:07;;;;;;;4.50;1.67;;;7.40;99.90;;;;;;20611245;28;20045;-46
2022/03/14 23:05:11;;;;;;;7.00;2.83;;;7.30;99.90;;;;;;20601936;28;20049;-47
2022/03/14 23:15:13;;;;;;;10.63;2.80;;;7.30;99.90;;;;;;20634382;28;20041;-47
2022/03/14 23:25:14;;;;;;;5.82;2.45;;;7.30;99.90;;;;;;20628952;28;20075;-46
2022/03/14 23:35:15;;;;;;;5.68;2.35;;;7.30;99.90;;;;;;20638444;28;20455;-46
2022/03/14 23:45:17;;;;;;;3.53;1.98;;;7.20;99.90;;;;;;20629619;28;20386;-46
2022/03/14 23:55:18;;;;;;;6.30;1.83;;;7.30;99.90;;;;;;20636759;28;20672;-47
